Time;durP1;ratioP1;P1;durP2;ratioP2;P2;SDS_P1;SDS_P2;PMS_P1;PMS_P2;Temp;Humidity;BMP_temperature;BMP_pressure;BME280_temperature;BME280_humidity;BME280_pressure;Samples;Min_cycle;Max_cycle;Signal;HPM_P1;HPM_P2
2023/12/10 00:00:32;;;;;;;1.65;0.70;;;;;;;;;;10432890;28;20040;-78
2023/12/10 00:05:34;;;;;;;;;;;;;;;;;;10427295;28;20124;-78
2023/12/10 00:10:37;;;;;;;3.28;0.60;;;;;;;;;;10431097;28;19927;-78
2023/12/10 00:15:41;;;;;;;0.88;0.70;;;;;;;;;;10434636;28;20045;-79
2023/12/10 00:20:44;;;;;;;1.05;0.80;;;;;;;;;;10428444;28;20541;-79
2023/12/10 00:25:47;;;;;;;1.00;0.70;;;;;;;;;;10428176;28;20056;-80
2023/12/10 00:30:51;;;;;;;0.52;0.47;;;;;;;;;;10429062;28;20182;-79
2023/12/10 00:35:54;;;;;;;2.22;0.77;;;;;;;;;;10429954;28;20534;-78
2023/12/10 00:40:57;;;;;;;0.98;0.65;;;;;;;;;;10430126;28;20049;-80
2023/12/10 00:46:01;;;;;;;0.77;0.70;;;;;;;;;;10432148;28;20690;-79
2023/12/10 00:51:04;;;;;;;0.40;0.40;;;;;;;;;;10426372;28;20041;-79
2023/12/10 00:56:07;;;;;;;1.58;0.70;;;;;;;;;;10426062;28;20525;-79
2023/12/10 01:01:11;;;;;;;0.82;0.47;;;;;;;;;;10435743;28;20041;-79
2023/12/10 01:06:14;;;;;;;0.80;0.45;;;;;;;;;;10426633;28;20095;-79
2023/12/10 01:11:16;;;;;;;1.08;0.40;;;;;;;;;;10430828;28;20049;-78
2023/12/10 01:16:20;;;;;;;1.23;0.40;;;;;;;;;;10425409;28;21424;-78
2023/12/10 01:21:23;;;;;;;1.80;0.63;;;;;;;;;;10425658;28;20033;-78
2023/12/10 01:26:26;;;;;;;0.38;0.32;;;;;;;;;;10426289;28;20052;-78
2023/12/10 01:31:34;;;;;;;1.55;0.40;;;;;;;;;;10424975;28;20707;-78
2023/12/10 01:36:37;;;;;;;1.17;0.30;;;;;;;;;;10427768;28;20049;-78
2023/12/10 01:41:40;;;;;;;0.75;0.43;;;;;;;;;;10423585;28;20115;-76
2023/12/10 01:46:45;;;;;;;0.75;0.28;;;;;;;;;;10420257;28;20080;-77
2023/12/10 01:51:48;;;;;;;2.20;0.50;;;;;;;;;;10424890;28;20052;-78
2023/12/10 01:56:51;;;;;;;2.60;0.70;;;;;;;;;;10429959;28;20044;-79
2023/12/10 02:02:12;;;;;;;0.40;0.35;;;;;;;;;;10427636;28;20807;-79
2023/12/10 02:07:14;;;;;;;6.30;1.10;;;;;;;;;;10434114;28;20132;-79
2023/12/10 02:12:17;;;;;;;3.05;0.70;;;;;;;;;;10431277;28;20133;-79
2023/12/10 02:17:22;;;;;;;0.98;0.57;;;;;;;;;;10427418;28;20479;-79
2023/12/10 02:22:25;;;;;;;3.00;0.70;;;;;;;;;;10427619;28;20048;-79
2023/12/10 02:27:29;;;;;;;1.88;0.60;;;;;;;;;;10438952;28;20410;-79
2023/12/10 02:32:31;;;;;;;0.60;0.20;;;;;;;;;;10420724;28;20036;-79
2023/12/10 02:37:34;;;;;;;0.52;0.30;;;;;;;;;;10427187;28;20548;-78
2023/12/10 02:42:38;;;;;;;0.82;0.40;;;;;;;;;;10427062;28;20454;-78
2023/12/10 02:47:41;;;;;;;1.42;0.38;;;;;;;;;;10421366;28;20041;-79
2023/12/10 02:52:44;;;;;;;0.20;0.20;;;;;;;;;;10427873;28;20120;-78
2023/12/10 02:57:48;;;;;;;0.55;0.10;;;;;;;;;;10423292;28;20041;-79
2023/12/10 03:02:51;;;;;;;0.75;0.43;;;;;;;;;;10421748;28;20125;-79
2023/12/10 03:07:54;;;;;;;1.63;0.63;;;;;;;;;;10424146;28;20041;-78
2023/12/10 03:12:58;;;;;;;0.20;0.20;;;;;;;;;;10429315;28;20687;-78
2023/12/10 03:18:01;;;;;;;2.65;0.47;;;;;;;;;;10418839;28;20057;-78
2023/12/10 03:23:04;;;;;;;0.87;0.40;;;;;;;;;;10423246;28;20076;-78
2023/12/10 03:28:08;;;;;;;4.40;0.95;;;;;;;;;;10419400;28;20041;-80
2023/12/10 03:33:10;;;;;;;3.60;0.50;;;;;;;;;;10429316;28;20498;-77
2023/12/10 03:38:13;;;;;;;1.85;0.68;;;;;;;;;;10427419;28;20390;-79
2023/12/10 03:43:17;;;;;;;1.30;0.60;;;;;;;;;;10421691;28;20128;-78
2023/12/10 03:48:20;;;;;;;2.03;0.55;;;;;;;;;;10424042;28;20525;-78
2023/12/10 03:53:23;;;;;;;2.33;0.50;;;;;;;;;;10432741;28;20037;-78
2023/12/10 03:58:28;;;;;;;5.25;0.63;;;;;;;;;;10436564;28;20149;-79
2023/12/10 04:03:31;;;;;;;1.65;0.40;;;;;;;;;;10441038;28;20748;-78
2023/12/10 04:08:34;;;;;;;4.18;0.60;;;;;;;;;;10435785;28;20045;-78
2023/12/10 04:13:38;;;;;;;2.00;0.60;;;;;;;;;;10437143;28;20081;-79
2023/12/10 04:18:40;;;;;;;6.28;0.47;;;;;;;;;;10434100;28;20817;-79
2023/12/10 04:23:43;;;;;;;5.05;0.88;;;;;;;;;;10437393;28;20120;-79
2023/12/10 04:28:47;;;;;;;5.65;0.55;;;;;;;;;;10429318;28;20055;-78
2023/12/10 04:33:50;;;;;;;2.58;0.32;;;;;;;;;;10428701;28;20459;-79
2023/12/10 04:38:53;;;;;;;5.63;1.00;;;;;;;;;;10423593;28;20052;-79
2023/12/10 04:43:56;;;;;;;2.85;0.60;;;;;;;;;;10419578;28;20045;-80
2023/12/10 04:48:59;;;;;;;6.28;1.10;;;;;;;;;;10421610;28;20051;-79
2023/12/10 04:54:02;;;;;;;3.03;0.60;;;;;;;;;;10415737;28;20052;-79
2023/12/10 04:59:06;;;;;;;7.90;1.05;;;;;;;;;;10420391;28;20052;-78
2023/12/10 05:04:09;;;;;;;;;;;;;;;;;;10422047;28;20707;-78
2023/12/10 05:09:11;;;;;;;4.40;0.75;;;;;;;;;;10431071;28;19934;-79
2023/12/10 05:14:15;;;;;;;4.65;0.98;;;;;;;;;;10418510;28;20118;-80
2023/12/10 05:19:18;;;;;;;8.80;1.33;;;;;;;;;;10418500;28;20037;-80
2023/12/10 05:24:21;;;;;;;9.35;1.38;;;;;;;;;;10424552;28;20037;-79
2023/12/10 05:29:25;;;;;;;5.80;1.50;;;;;;;;;;10423486;28;20137;-78
2023/12/10 05:34:27;;;;;;;5.45;1.50;;;;;;;;;;10423694;28;20135;-78
2023/12/10 05:39:30;;;;;;;7.05;1.08;;;;;;;;;;10423549;28;20593;-78
2023/12/10 05:44:35;;;;;;;7.68;1.30;;;;;;;;;;10417541;28;20568;-79
2023/12/10 05:49:37;;;;;;;9.82;1.75;;;;;;;;;;10430452;28;20115;-79
2023/12/10 05:54:40;;;;;;;8.77;1.33;;;;;;;;;;10420618;28;20470;-77
2023/12/10 05:59:45;;;;;;;5.00;1.15;;;;;;;;;;10419170;28;20052;-78
2023/12/10 06:04:48;;;;;;;3.70;1.02;;;;;;;;;;10422429;28;20051;-80
2023/12/10 06:09:51;;;;;;;8.40;1.17;;;;;;;;;;10428353;28;20037;-79
2023/12/10 06:14:55;;;;;;;9.85;2.00;;;;;;;;;;10413990;28;20049;-78
2023/12/10 06:19:58;;;;;;;9.30;1.45;;;;;;;;;;10416584;28;20422;-78
2023/12/10 06:25:00;;;;;;;7.05;1.02;;;;;;;;;;10419798;28;20528;-78
2023/12/10 06:30:04;;;;;;;1.85;0.50;;;;;;;;;;10417850;28;20044;-78
2023/12/10 06:35:07;;;;;;;;;;;;;;;;;;10423319;28;20114;-78
2023/12/10 06:40:10;;;;;;;3.95;0.98;;;;;;;;;;10422574;28;19925;-78
2023/12/10 06:45:15;;;;;;;8.27;1.10;;;;;;;;;;10419472;28;20037;-76
2023/12/10 06:50:17;;;;;;;;;;;;;;;;;;10421104;28;20029;-79
2023/12/10 06:55:20;;;;;;;5.63;0.95;;;;;;;;;;10415832;28;20007;-78
2023/12/10 07:00:24;;;;;;;13.90;1.70;;;;;;;;;;10417845;28;20160;-79
2023/12/10 07:05:29;;;;;;;8.00;1.25;;;;;;;;;;10420414;28;20052;-77
2023/12/10 07:10:32;;;;;;;9.23;1.42;;;;;;;;;;10429335;28;20033;-80
2023/12/10 07:15:36;;;;;;;4.07;1.08;;;;;;;;;;10421882;28;20152;-80
2023/12/10 07:20:39;;;;;;;6.43;1.05;;;;;;;;;;10420099;28;22061;-79
2023/12/10 07:25:42;;;;;;;6.50;1.02;;;;;;;;;;10424108;28;20064;-78
2023/12/10 07:30:46;;;;;;;7.25;1.40;;;;;;;;;;10426305;28;20325;-79
2023/12/10 07:35:49;;;;;;;6.57;1.80;;;;;;;;;;10422801;28;20037;-79
2023/12/10 07:40:51;;;;;;;6.07;1.38;;;;;;;;;;10433336;28;20081;-79
2023/12/10 07:45:55;;;;;;;2.15;1.00;;;;;;;;;;10428776;28;20522;-79
2023/12/10 07:50:58;;;;;;;6.82;1.73;;;;;;;;;;10431631;28;20041;-78
2023/12/10 07:56:01;;;;;;;7.97;1.92;;;;;;;;;;10429124;28;20128;-78
2023/12/10 08:01:05;;;;;;;6.68;1.40;;;;;;;;;;10428768;28;20120;-80
2023/12/10 08:06:08;;;;;;;4.97;1.15;;;;;;;;;;10428480;28;20037;-78
2023/12/10 08:11:11;;;;;;;11.45;1.48;;;;;;;;;;10432886;28;20051;-78
2023/12/10 08:16:15;;;;;;;4.55;0.98;;;;;;;;;;10429983;28;20064;-77
2023/12/10 08:21:18;;;;;;;4.63;1.08;;;;;;;;;;10425297;28;20136;-78
2023/12/10 08:26:21;;;;;;;6.20;1.17;;;;;;;;;;10428798;28;20048;-79
2023/12/10 08:31:26;;;;;;;4.65;0.93;;;;;;;;;;10430501;28;20132;-79
2023/12/10 08:36:29;;;;;;;5.32;1.10;;;;;;;;;;10426208;28;20130;-78
2023/12/10 08:41:31;;;;;;;8.10;1.50;;;;;;;;;;10429889;28;20044;-78
2023/12/10 08:46:35;;;;;;;10.77;1.10;;;;;;;;;;10421975;28;20033;-78
2023/12/10 08:51:38;;;;;;;7.85;1.45;;;;;;;;;;10434145;28;20610;-78
2023/12/10 08:56:40;;;;;;;6.45;1.17;;;;;;;;;;10427693;28;20052;-78
2023/12/10 09:01:44;;;;;;;6.05;2.15;;;;;;;;;;10425267;28;20029;-77
2023/12/10 09:06:47;;;;;;;4.68;1.23;;;;;;;;;;10430250;28;20069;-77
2023/12/10 09:11:50;;;;;;;3.58;1.13;;;;;;;;;;10426271;28;20578;-77
2023/12/10 09:16:56;;;;;;;7.43;1.45;;;;;;;;;;10426502;28;20487;-76
2023/12/10 09:21:59;;;;;;;5.25;1.48;;;;;;;;;;10424678;28;20554;-78
2023/12/10 09:27:02;;;;;;;7.10;1.20;;;;;;;;;;10427616;28;20056;-78
2023/12/10 09:32:07;;;;;;;6.78;1.42;;;;;;;;;;10425194;28;20052;-78
2023/12/10 09:37:13;;;;;;;6.10;0.98;;;;;;;;;;10423893;28;20055;-77
2023/12/10 09:42:16;;;;;;;4.32;1.30;;;;;;;;;;10426757;28;20120;-78
2023/12/10 09:47:20;;;;;;;7.53;1.80;;;;;;;;;;10430588;28;20098;-79
2023/12/10 09:52:23;;;;;;;;;;;;;;;;;;10434255;28;20041;-77
2023/12/10 09:57:29;;;;;;;3.03;1.27;;;;;;;;;;10429779;28;19921;-78
2023/12/10 10:02:33;;;;;;;5.32;1.35;;;;;;;;;;10427852;28;20035;-78
2023/12/10 10:07:36;;;;;;;3.90;1.15;;;;;;;;;;10427795;28;20536;-77
2023/12/10 10:12:39;;;;;;;3.53;1.00;;;;;;;;;;10435346;28;20033;-77
2023/12/10 10:17:43;;;;;;;3.90;1.15;;;;;;;;;;10424593;28;20394;-77
2023/12/10 10:22:47;;;;;;;8.38;1.88;;;;;;;;;;10426031;28;20128;-77
2023/12/10 10:27:50;;;;;;;4.38;1.27;;;;;;;;;;10429638;28;20048;-77
2023/12/10 10:32:55;;;;;;;5.57;1.13;;;;;;;;;;10433344;28;20515;-77
2023/12/10 10:37:58;;;;;;;3.17;0.90;;;;;;;;;;10441743;28;20140;-76
2023/12/10 10:43:01;;;;;;;6.60;1.33;;;;;;;;;;10435717;28;20126;-77
2023/12/10 10:48:05;;;;;;;4.90;1.10;;;;;;;;;;10435108;28;20045;-75
2023/12/10 10:53:09;;;;;;;6.88;1.48;;;;;;;;;;10427712;28;20131;-77
2023/12/10 10:58:22;;;;;;;3.73;1.00;;;;;;;;;;10432066;28;20044;-76
2023/12/10 11:03:27;;;;;;;5.45;1.42;;;;;;;;;;10427379;28;20176;-78
2023/12/10 11:08:30;;;;;;;6.05;2.08;;;;;;;;;;10431760;28;20483;-77
2023/12/10 11:13:42;;;;;;;5.05;1.90;;;;;;;;;;10432547;28;20554;-77
2023/12/10 11:18:57;;;;;;;5.35;1.80;;;;;;;;;;10433626;28;20364;-77
2023/12/10 11:24:00;;;;;;;4.13;1.33;;;;;;;;;;10435086;28;20051;-77
2023/12/10 11:29:03;;;;;;;4.68;1.65;;;;;;;;;;10438666;28;20098;-76
2023/12/10 11:34:07;;;;;;;3.13;1.77;;;;;;;;;;10438673;28;20075;-77
2023/12/10 11:39:12;;;;;;;4.55;1.90;;;;;;;;;;10433373;28;20144;-77
2023/12/10 11:44:15;;;;;;;4.22;1.40;;;;;;;;;;10432849;28;20096;-77
2023/12/10 11:49:19;;;;;;;5.70;1.53;;;;;;;;;;10435752;28;20136;-76
2023/12/10 11:54:22;;;;;;;1.63;1.10;;;;;;;;;;10445514;28;20545;-76
2023/12/10 11:59:25;;;;;;;3.63;1.60;;;;;;;;;;10442380;28;20478;-76
2023/12/10 12:04:29;;;;;;;2.13;0.87;;;;;;;;;;10448125;28;20029;-75
2023/12/10 12:09:32;;;;;;;3.00;1.40;;;;;;;;;;10458098;28;20765;-76
2023/12/10 12:14:35;;;;;;;2.17;1.30;;;;;;;;;;10456489;28;20438;-77
2023/12/10 12:19:39;;;;;;;4.88;1.60;;;;;;;;;;10450631;28;20086;-77
2023/12/10 12:24:43;;;;;;;5.60;1.85;;;;;;;;;;10442428;28;20048;-78
2023/12/10 12:29:46;;;;;;;6.63;1.80;;;;;;;;;;10439082;28;20510;-79
2023/12/10 12:34:50;;;;;;;4.85;1.73;;;;;;;;;;10443648;28;20439;-79
2023/12/10 12:39:53;;;;;;;5.93;1.65;;;;;;;;;;10439433;28;20048;-78
2023/12/10 12:44:56;;;;;;;5.18;2.17;;;;;;;;;;10437687;28;20044;-79
2023/12/10 12:50:00;;;;;;;4.55;1.50;;;;;;;;;;10439992;28;20134;-77
2023/12/10 12:55:02;;;;;;;6.07;1.45;;;;;;;;;;10445051;28;20041;-76
2023/12/10 13:00:06;;;;;;;3.85;1.23;;;;;;;;;;10457658;28;20044;-77
2023/12/10 13:05:11;;;;;;;3.50;0.93;;;;;;;;;;10436022;28;20453;-77
2023/12/10 13:10:14;;;;;;;4.30;1.05;;;;;;;;;;10430373;28;20272;-77
2023/12/10 13:15:16;;;;;;;4.68;1.30;;;;;;;;;;10430806;28;20049;-77
2023/12/10 13:20:20;;;;;;;5.28;1.63;;;;;;;;;;10422697;28;20539;-78
2023/12/10 13:25:23;;;;;;;3.47;1.20;;;;;;;;;;10433243;28;20045;-77
2023/12/10 13:30:25;;;;;;;4.22;1.45;;;;;;;;;;10433201;28;20094;-77
2023/12/10 13:35:30;;;;;;;9.48;1.80;;;;;;;;;;10428388;28;20033;-76
2023/12/10 13:40:32;;;;;;;;;;;;;;;;;;10434556;28;20044;-78
2023/12/10 13:45:35;;;;;;;4.40;1.08;;;;;;;;;;10434963;28;19934;-78
2023/12/10 13:50:39;;;;;;;3.25;0.90;;;;;;;;;;10432327;28;20037;-78
2023/12/10 13:55:42;;;;;;;5.78;1.10;;;;;;;;;;10429679;28;20527;-78
2023/12/10 14:00:45;;;;;;;2.15;1.08;;;;;;;;;;10433565;28;20165;-78
2023/12/10 14:05:49;;;;;;;12.75;2.53;;;;;;;;;;10432476;28;20045;-77
2023/12/10 14:10:51;;;;;;;5.60;1.58;;;;;;;;;;10425570;28;20115;-77
2023/12/10 14:15:55;;;;;;;6.30;1.23;;;;;;;;;;10430389;28;20045;-77
2023/12/10 14:20:59;;;;;;;7.90;1.20;;;;;;;;;;10428343;28;20115;-77
2023/12/10 14:26:02;;;;;;;6.35;1.15;;;;;;;;;;10424798;28;20354;-77
2023/12/10 14:31:04;;;;;;;5.85;1.00;;;;;;;;;;10425701;28;20072;-79
2023/12/10 14:36:09;;;;;;;3.80;1.13;;;;;;;;;;10431546;28;20124;-78
2023/12/10 14:41:12;;;;;;;2.88;1.10;;;;;;;;;;10431863;28;20083;-78
2023/12/10 14:46:14;;;;;;;3.65;1.08;;;;;;;;;;10439726;28;20052;-78
2023/12/10 14:51:18;;;;;;;3.10;0.93;;;;;;;;;;10440946;28;20474;-78
2023/12/10 14:56:22;;;;;;;7.05;1.52;;;;;;;;;;10430408;28;20412;-78
2023/12/10 15:01:25;;;;;;;21.73;5.53;;;;;;;;;;10430240;28;20033;-78
2023/12/10 15:06:31;;;;;;;8.55;1.13;;;;;;;;;;10428128;28;20482;-78
2023/12/10 15:11:34;;;;;;;7.25;1.42;;;;;;;;;;10428814;28;20059;-79
2023/12/10 15:16:37;;;;;;;6.15;1.45;;;;;;;;;;10430000;28;20483;-79
2023/12/10 15:21:41;;;;;;;13.25;1.75;;;;;;;;;;10431613;28;20166;-78
2023/12/10 15:26:44;;;;;;;1.83;0.80;;;;;;;;;;10434683;28;20057;-78
2023/12/10 15:31:46;;;;;;;6.15;1.10;;;;;;;;;;10427238;28;20061;-78
2023/12/10 15:36:50;;;;;;;5.50;1.08;;;;;;;;;;10434350;28;20044;-79
2023/12/10 15:41:53;;;;;;;4.88;0.73;;;;;;;;;;10437955;28;20102;-77
2023/12/10 15:46:56;;;;;;;4.90;1.42;;;;;;;;;;10446499;28;20046;-78
2023/12/10 15:52:23;;;;;;;4.72;1.25;;;;;;;;;;10450437;28;20310;-77
2023/12/10 16:04:28;;;;;;;3.00;1.27;;;;;;;;;;10252444;28;20045;-78
2023/12/10 16:09:58;;;;;;;3.95;1.08;;;;;;;;;;10433641;28;20049;-75
2023/12/10 16:15:06;;;;;;;5.85;0.88;;;;;;;;;;10426302;28;20175;-77
2023/12/10 16:20:14;;;;;;;3.55;1.45;;;;;;;;;;10435963;28;20060;-78
2023/12/10 16:25:19;;;;;;;3.85;1.20;;;;;;;;;;10427333;28;20056;-77
2023/12/10 16:30:22;;;;;;;9.07;1.90;;;;;;;;;;10430589;28;20052;-76
2023/12/10 16:35:29;;;;;;;2.63;0.98;;;;;;;;;;10430046;28;20040;-77
2023/12/10 16:40:32;;;;;;;1.20;0.50;;;;;;;;;;10436204;28;20053;-78
2023/12/10 16:45:50;;;;;;;2.25;0.70;;;;;;;;;;10434976;28;20506;-76
2023/12/10 16:50:54;;;;;;;9.25;1.80;;;;;;;;;;10427924;28;20112;-77
2023/12/10 16:55:57;;;;;;;7.57;1.80;;;;;;;;;;10423416;28;20124;-75
2023/12/10 17:01:00;;;;;;;5.07;1.50;;;;;;;;;;10426000;28;20152;-75
2023/12/10 17:06:04;;;;;;;5.50;1.50;;;;;;;;;;10432521;28;20044;-76
2023/12/10 17:11:07;;;;;;;6.45;1.95;;;;;;;;;;10431586;28;20414;-76
2023/12/10 17:16:09;;;;;;;8.07;2.35;;;;;;;;;;10437414;28;20127;-75
2023/12/10 17:21:13;;;;;;;7.68;2.80;;;;;;;;;;10433169;28;20041;-75
2023/12/10 17:26:16;;;;;;;6.05;2.47;;;;;;;;;;10442295;28;20056;-75
2023/12/10 17:31:19;;;;;;;18.70;6.28;;;;;;;;;;10431850;28;20141;-75
2023/12/10 17:36:23;;;;;;;9.10;2.95;;;;;;;;;;10437562;28;20043;-75
2023/12/10 17:41:26;;;;;;;;;;;;;;;;;;10431695;28;20044;-76
2023/12/10 17:46:29;;;;;;;3.70;2.10;;;;;;;;;;10431184;28;20653;-75
2023/12/10 17:51:32;;;;;;;3.95;1.95;;;;;;;;;;10432090;28;20073;-75
2023/12/10 17:56:35;;;;;;;5.53;2.65;;;;;;;;;;10427573;28;20064;-76
2023/12/10 18:01:38;;;;;;;6.93;2.30;;;;;;;;;;10431956;28;20049;-76
2023/12/10 18:06:44;;;;;;;7.93;2.72;;;;;;;;;;10426782;28;20065;-76
2023/12/10 18:11:47;;;;;;;12.88;3.60;;;;;;;;;;10424230;28;20045;-75
2023/12/10 18:16:50;;;;;;;1.77;1.02;;;;;;;;;;10422132;28;20045;-76
2023/12/10 18:21:54;;;;;;;10.77;3.40;;;;;;;;;;10429348;28;20542;-75
2023/12/10 18:26:57;;;;;;;6.93;2.80;;;;;;;;;;10418534;28;20049;-75
2023/12/10 18:32:00;;;;;;;4.20;1.73;;;;;;;;;;10429798;28;20159;-76
2023/12/10 18:37:04;;;;;;;1.98;1.40;;;;;;;;;;10431142;28;20129;-75
2023/12/10 18:42:07;;;;;;;7.25;2.13;;;;;;;;;;10430400;28;20063;-75
2023/12/10 18:47:13;;;;;;;8.65;3.40;;;;;;;;;;10429657;28;20105;-78
2023/12/10 18:52:17;;;;;;;8.90;3.45;;;;;;;;;;10440355;28;20478;-75
2023/12/10 18:57:20;;;;;;;10.55;3.80;;;;;;;;;;10430595;28;20176;-76
2023/12/10 19:02:23;;;;;;;15.23;4.88;;;;;;;;;;10424451;28;20176;-78
2023/12/10 19:07:28;;;;;;;12.30;3.95;;;;;;;;;;10427881;28;20039;-75
2023/12/10 19:12:31;;;;;;;12.85;3.25;;;;;;;;;;10417922;28;20304;-76
2023/12/10 19:17:34;;;;;;;14.02;5.05;;;;;;;;;;10426466;28;20028;-76
2023/12/10 19:22:38;;;;;;;9.87;2.73;;;;;;;;;;10432878;28;20144;-75
2023/12/10 19:27:41;;;;;;;6.18;2.33;;;;;;;;;;10432119;28;20079;-76
2023/12/10 19:32:46;;;;;;;9.60;3.13;;;;;;;;;;10433703;28;20041;-76
2023/12/10 19:37:51;;;;;;;3.13;1.23;;;;;;;;;;10433541;28;20160;-77
2023/12/10 19:42:53;;;;;;;7.10;2.22;;;;;;;;;;10430858;28;20110;-76
2023/12/10 19:47:56;;;;;;;4.80;2.10;;;;;;;;;;10431666;28;20041;-75
2023/12/10 19:53:00;;;;;;;4.82;1.92;;;;;;;;;;10437375;28;20056;-75
2023/12/10 19:58:04;;;;;;;7.05;3.10;;;;;;;;;;10432717;28;20094;-76
2023/12/10 20:03:07;;;;;;;6.72;3.17;;;;;;;;;;10430982;28;20047;-76
2023/12/10 20:08:11;;;;;;;5.20;2.05;;;;;;;;;;10433314;28;20064;-76
2023/12/10 20:13:14;;;;;;;10.73;2.92;;;;;;;;;;10432013;28;20049;-76
2023/12/10 20:18:17;;;;;;;3.63;1.40;;;;;;;;;;10433494;28;20391;-76
2023/12/10 20:23:23;;;;;;;4.30;1.17;;;;;;;;;;10433162;28;20033;-76
2023/12/10 20:28:26;;;;;;;35.42;8.13;;;;;;;;;;10431803;28;20033;-76
2023/12/10 20:33:29;;;;;;;8.70;2.90;;;;;;;;;;10433127;28;20068;-76
2023/12/10 20:38:33;;;;;;;9.30;1.92;;;;;;;;;;10431984;28;20395;-76
2023/12/10 20:43:36;;;;;;;1.65;0.65;;;;;;;;;;10430305;28;20702;-76
2023/12/10 20:48:38;;;;;;;3.28;1.48;;;;;;;;;;10434576;28;20037;-77
2023/12/10 20:53:43;;;;;;;2.70;1.07;;;;;;;;;;10424067;28;20045;-76
2023/12/10 20:58:45;;;;;;;2.78;1.02;;;;;;;;;;10434611;28;20114;-76
2023/12/10 21:03:48;;;;;;;2.17;1.20;;;;;;;;;;10429999;28;21568;-76
2023/12/10 21:08:52;;;;;;;3.95;1.33;;;;;;;;;;10430609;28;20040;-75
2023/12/10 21:13:55;;;;;;;2.90;1.10;;;;;;;;;;10428123;28;20263;-75
2023/12/10 21:25:10;;;;;;;0.77;0.40;;;;;;;;;;10427632;28;20577;-75
2023/12/10 21:30:16;;;;;;;1.08;0.40;;;;;;;;;;10430407;28;20129;-76
2023/12/10 21:35:18;;;;;;;2.25;1.08;;;;;;;;;;10428877;28;20047;-77
2023/12/10 21:40:22;;;;;;;3.45;0.52;;;;;;;;;;10418040;28;20123;-76
2023/12/10 21:45:25;;;;;;;3.83;0.60;;;;;;;;;;10421930;28;20064;-76
2023/12/10 21:50:29;;;;;;;3.63;1.80;;;;;;;;;;10421517;28;20045;-75
2023/12/10 21:55:33;;;;;;;5.65;1.30;;;;;;;;;;10422047;28;20781;-75
2023/12/10 22:00:36;;;;;;;;;;;;;;;;;;10418729;28;20055;-76
2023/12/10 22:05:41;;;;;;;1.35;0.57;;;;;;;;;;10426769;28;19931;-75
2023/12/10 22:10:44;;;;;;;;;;;;;;;;;;10431686;28;20045;-75
2023/12/10 22:15:48;;;;;;;0.70;0.30;;;;;;;;;;10428010;28;19955;-76
2023/12/10 22:20:51;;;;;;;4.55;1.00;;;;;;;;;;10440504;28;20040;-75
2023/12/10 22:25:53;;;;;;;4.43;1.00;;;;;;;;;;10418366;28;20495;-74
2023/12/10 22:30:57;;;;;;;2.40;1.10;;;;;;;;;;10421930;28;20056;-73
2023/12/10 22:36:03;;;;;;;2.70;1.13;;;;;;;;;;10427708;28;20056;-74
2023/12/10 22:41:06;;;;;;;1.98;1.10;;;;;;;;;;10429059;28;20068;-74
2023/12/10 22:46:10;;;;;;;2.72;1.10;;;;;;;;;;10428347;28;20045;-75
2023/12/10 22:51:13;;;;;;;1.20;0.80;;;;;;;;;;10415813;28;20040;-73
2023/12/10 22:56:15;;;;;;;2.08;0.63;;;;;;;;;;10423680;28;20039;-75
2023/12/10 23:01:20;;;;;;;2.20;0.85;;;;;;;;;;10422984;28;20132;-75
2023/12/10 23:06:23;;;;;;;1.58;0.95;;;;;;;;;;10425602;28;20713;-74
2023/12/10 23:11:26;;;;;;;2.25;0.70;;;;;;;;;;10429631;28;20061;-74
2023/12/10 23:16:33;;;;;;;3.85;0.75;;;;;;;;;;10420251;28;20122;-76
2023/12/10 23:21:36;;;;;;;4.55;1.33;;;;;;;;;;10416312;28;20137;-75
2023/12/10 23:26:38;;;;;;;2.57;1.27;;;;;;;;;;10420568;28;20045;-75
2023/12/10 23:31:44;;;;;;;0.90;0.38;;;;;;;;;;10418463;28;20045;-75
2023/12/10 23:36:47;;;;;;;1.42;0.82;;;;;;;;;;10418656;28;20041;-76
2023/12/10 23:41:49;;;;;;;0.90;0.45;;;;;;;;;;10412258;28;20108;-74
2023/12/10 23:46:54;;;;;;;0.55;0.30;;;;;;;;;;10417150;28;20045;-75
2023/12/10 23:51:56;;;;;;;2.35;0.68;;;;;;;;;;10422539;28;20552;-75
2023/12/10 23:56:59;;;;;;;0.50;0.40;;;;;;;;;;10424816;28;20037;-75
